createdAt,value
2019-03-19T00:01:49.595Z,100991.42
2019-03-19T00:04:20.807Z,100988.78
2019-03-19T00:06:51.966Z,100994.55
2019-03-19T00:09:23.155Z,100986.09
2019-03-19T00:11:54.508Z,100988.81
2019-03-19T00:14:25.923Z,100991.09
2019-03-19T00:16:57.192Z,100993.71
2019-03-19T00:19:28.453Z,100990.59
2019-03-19T00:21:59.755Z,100981.77
2019-03-19T00:24:31.071Z,100990.67
2019-03-19T00:27:02.526Z,100983.09
2019-03-19T00:29:33.757Z,100982.61
2019-03-19T00:32:05.119Z,100987.52
2019-03-19T00:34:36.982Z,100985.31
2019-03-19T00:37:08.736Z,100984.00
2019-03-19T00:39:40.391Z,100983.54
2019-03-19T00:42:12.603Z,100985.33
2019-03-19T00:44:43.911Z,100986.25
2019-03-19T00:47:15.773Z,100983.59
2019-03-19T00:49:47.531Z,100992.95
2019-03-19T00:52:19.191Z,100989.39
2019-03-19T00:54:50.971Z,100983.14
2019-03-19T00:57:22.208Z,100984.48
2019-03-19T00:59:53.360Z,100992.95
2019-03-19T01:02:24.621Z,100993.39
2019-03-19T01:04:55.889Z,100994.25
2019-03-19T01:07:27.273Z,101005.84
2019-03-19T01:09:59.914Z,101005.84
2019-03-19T01:12:31.508Z,101002.70
2019-03-19T01:15:03.263Z,101003.14
2019-03-19T01:17:35.444Z,101010.23
2019-03-19T01:20:09.854Z,101014.69
2019-03-19T01:22:41.816Z,101016.00
2019-03-19T01:25:13.676Z,101011.55
2019-03-19T01:27:45.641Z,101012.02
2019-03-19T01:30:17.924Z,101016.47
2019-03-19T01:32:49.457Z,101018.25
2019-03-19T01:35:21.118Z,101021.80
2019-03-19T01:37:52.689Z,101024.03
2019-03-19T01:40:24.381Z,101022.69
2019-03-19T01:42:56.359Z,101019.13
2019-03-19T01:45:28.044Z,101014.70
2019-03-19T01:47:59.703Z,101021.39
2019-03-19T01:50:31.460Z,101027.14
2019-03-19T01:53:03.325Z,101021.39
2019-03-19T01:55:34.876Z,101031.16
2019-03-19T01:58:06.536Z,101035.13
2019-03-19T02:00:38.212Z,101032.91
2019-03-19T02:03:09.947Z,101028.91
2019-03-19T02:05:41.559Z,101036.04
2019-03-19T02:08:13.260Z,101041.34
2019-03-19T02:10:44.914Z,101042.23
2019-03-19T02:13:16.669Z,101034.23
2019-03-19T02:15:48.440Z,101038.25
2019-03-19T02:18:19.779Z,101036.00
2019-03-19T02:20:50.960Z,101035.55
2019-03-19T02:23:22.194Z,101032.01
2019-03-19T02:25:53.479Z,101032.45
2019-03-19T02:28:24.885Z,101028.88
2019-03-19T02:30:56.207Z,101027.98
2019-03-19T02:33:27.533Z,101029.73
2019-03-19T02:35:58.914Z,101026.64
2019-03-19T02:38:30.239Z,101034.22
2019-03-19T02:41:01.648Z,101028.88
2019-03-19T02:43:33.084Z,101026.16
2019-03-19T02:46:04.497Z,101025.27
2019-03-19T02:48:36.164Z,101026.59
2019-03-19T02:51:08.093Z,101036.80
2019-03-19T02:53:40.393Z,101033.67
2019-03-19T02:56:11.950Z,101039.48
2019-03-19T02:58:43.609Z,101042.59
2019-03-19T03:01:14.937Z,101034.59
2019-03-19T03:03:46.609Z,101033.27
2019-03-19T03:06:18.005Z,101043.00
2019-03-19T03:08:49.709Z,101034.55
2019-03-19T03:11:21.169Z,101037.66
2019-03-19T03:13:52.574Z,101043.91
2019-03-19T03:16:23.911Z,101046.98
2019-03-19T03:18:55.429Z,101041.68
2019-03-19T03:21:26.754Z,101047.45
2019-03-19T03:23:58.538Z,101051.36
2019-03-19T03:26:30.239Z,101054.53
2019-03-19T03:29:01.479Z,101061.64
2019-03-19T03:31:32.694Z,101059.84
2019-03-19T03:34:04.031Z,101066.07
2019-03-19T03:36:35.270Z,101064.72
2019-03-19T03:39:07.818Z,101063.33
2019-03-19T03:41:39.192Z,101070.85
2019-03-19T03:44:11.202Z,101071.76
2019-03-19T03:46:42.508Z,101066.86
2019-03-19T03:49:14.048Z,101069.09
2019-03-19T03:51:45.758Z,101071.72
2019-03-19T03:54:16.941Z,101068.16
2019-03-19T03:57:01.411Z,101071.76
2019-03-19T03:59:21.395Z,101069.98
2019-03-19T04:01:52.987Z,101071.37
2019-03-19T04:04:24.346Z,101075.75
2019-03-19T04:06:55.582Z,101078.03
2019-03-19T04:09:26.752Z,101080.72
2019-03-19T04:11:58.018Z,101078.55
2019-03-19T04:14:29.812Z,101084.80
2019-03-19T04:17:01.175Z,101082.66
2019-03-19T04:19:32.902Z,101086.62
2019-03-19T04:22:04.774Z,101088.47
2019-03-19T04:24:36.312Z,101088.49
2019-03-19T04:27:15.972Z,101093.83
2019-03-19T04:29:41.051Z,101094.28
2019-03-19T04:32:12.352Z,101093.38
2019-03-19T04:34:44.073Z,101096.94
2019-03-19T04:37:15.935Z,101092.05
2019-03-19T04:39:47.256Z,101100.05
2019-03-19T04:42:18.610Z,101109.82
2019-03-19T04:44:50.118Z,101104.95
2019-03-19T04:47:21.420Z,101108.95
2019-03-19T04:49:53.108Z,101116.95
2019-03-19T04:52:24.385Z,101113.84
2019-03-19T04:54:55.717Z,101120.50
2019-03-19T04:57:27.363Z,101114.73
2019-03-19T04:59:59.130Z,101127.63
2019-03-19T05:02:30.791Z,101122.29
2019-03-19T05:05:02.904Z,101123.14
2019-03-19T05:07:34.510Z,101120.91
2019-03-19T05:10:15.644Z,101116.81
2019-03-19T05:12:47.193Z,101118.61
2019-03-19T05:15:18.835Z,101118.05
2019-03-19T05:17:50.140Z,101118.42
2019-03-19T05:20:21.378Z,101121.07
2019-03-19T05:22:52.632Z,101117.34
2019-03-19T05:25:23.952Z,101120.53
2019-03-19T05:27:55.385Z,101125.44
2019-03-19T05:30:26.729Z,101117.95
2019-03-19T05:32:58.072Z,101128.91
2019-03-19T05:35:29.749Z,101124.95
2019-03-19T05:38:01.458Z,101130.33
2019-03-19T05:40:33.277Z,101130.79
2019-03-19T05:43:04.605Z,101123.67
2019-03-19T05:45:36.111Z,101125.06
2019-03-19T05:48:07.395Z,101121.98
2019-03-19T05:50:38.642Z,101129.22
2019-03-19T05:53:09.937Z,101128.64
2019-03-19T05:55:41.099Z,101130.25
2019-03-19T05:58:12.421Z,101127.79
2019-03-19T06:00:43.791Z,101118.45
2019-03-19T06:03:15.084Z,101123.09
2019-03-19T06:05:46.414Z,101121.08
2019-03-19T06:08:17.664Z,101124.71
2019-03-19T06:10:49.681Z,101110.19
2019-03-19T06:13:21.331Z,101117.59
2019-03-19T06:15:52.596Z,101122.53
2019-03-19T06:18:34.277Z,101112.78
2019-03-19T06:20:56.982Z,101127.11
2019-03-19T06:23:28.237Z,101122.23
2019-03-19T06:25:59.499Z,101122.20
2019-03-19T06:28:30.967Z,101122.82
2019-03-19T06:31:02.215Z,101126.67
2019-03-19T06:33:33.476Z,101130.58
2019-03-19T06:36:04.747Z,101123.02
2019-03-19T06:38:36.098Z,101123.98
2019-03-19T06:41:07.462Z,101130.34
2019-03-19T06:43:39.421Z,101134.16
2019-03-19T06:46:11.824Z,101132.00
2019-03-19T06:48:43.259Z,101115.89
2019-03-19T06:51:14.568Z,101101.03
2019-03-19T06:53:45.845Z,101110.74
2019-03-19T06:56:17.611Z,101106.36
2019-03-19T06:58:48.939Z,101112.84
2019-03-19T07:01:20.268Z,101110.50
2019-03-19T07:03:52.900Z,101121.27
2019-03-19T07:06:24.982Z,101129.14
2019-03-19T07:08:57.281Z,101123.84
2019-03-19T07:11:28.702Z,101125.35
2019-03-19T07:14:00.054Z,101125.59
2019-03-19T07:16:31.386Z,101134.17
2019-03-19T07:19:02.706Z,101132.05
2019-03-19T07:21:34.049Z,101126.98
2019-03-19T07:24:05.453Z,101131.66
2019-03-19T07:26:36.787Z,101131.17
2019-03-19T07:29:08.151Z,101130.55
2019-03-19T07:31:39.469Z,101121.08
2019-03-19T07:34:10.905Z,101120.42
2019-03-19T07:36:42.222Z,101112.29
2019-03-19T07:39:13.597Z,101109.80
2019-03-19T07:41:44.936Z,101119.06
2019-03-19T07:44:16.344Z,101118.87
2019-03-19T07:46:47.792Z,101126.22
2019-03-19T07:49:19.198Z,101126.03
2019-03-19T07:51:53.404Z,101123.31
2019-03-19T07:54:24.717Z,101122.42
2019-03-19T07:56:56.124Z,101112.70
2019-03-19T07:59:27.526Z,101116.08
2019-03-19T08:01:58.797Z,101106.84
2019-03-19T08:04:31.632Z,101106.19
2019-03-19T08:07:02.931Z,101101.08
2019-03-19T08:09:34.237Z,101093.42
2019-03-19T08:12:05.454Z,101092.09
2019-03-19T08:14:36.603Z,101098.97
2019-03-19T08:17:07.971Z,101093.81
2019-03-19T08:19:39.364Z,101094.05
2019-03-19T08:22:10.803Z,101087.71
2019-03-19T08:24:44.187Z,101097.28
2019-03-19T08:27:15.546Z,101087.53
2019-03-19T08:29:46.928Z,101084.55
2019-03-19T08:32:18.440Z,101086.33
2019-03-19T08:34:49.840Z,101093.91
2019-03-19T08:37:21.176Z,101098.31
2019-03-19T08:39:52.505Z,101085.34
2019-03-19T08:42:23.786Z,101087.61
2019-03-19T08:44:55.473Z,101096.88
2019-03-19T08:47:26.981Z,101095.16
2019-03-19T08:49:58.407Z,101093.48
2019-03-19T08:52:29.646Z,101093.53
2019-03-19T08:55:00.915Z,101084.70
2019-03-19T08:57:32.420Z,101089.81
2019-03-19T09:00:16.416Z,101079.22
2019-03-19T09:02:47.822Z,101080.52
2019-03-19T09:05:19.172Z,101076.52
2019-03-19T09:07:50.908Z,101085.08
2019-03-19T09:10:22.218Z,101085.73
2019-03-19T09:12:53.562Z,101085.90
2019-03-19T09:15:26.917Z,101081.42
2019-03-19T09:17:58.288Z,101086.98
2019-03-19T09:20:29.558Z,101089.48
2019-03-19T09:23:01.003Z,101088.24
2019-03-19T09:25:32.300Z,101067.25
2019-03-19T09:28:03.643Z,101085.47
2019-03-19T09:30:35.008Z,101085.58
2019-03-19T09:33:06.447Z,101080.01
2019-03-19T09:35:37.729Z,101073.42
2019-03-19T09:38:09.208Z,101067.89
2019-03-19T09:40:40.431Z,101071.17
2019-03-19T09:43:12.397Z,101055.39
2019-03-19T09:45:43.773Z,101052.46
2019-03-19T09:48:16.227Z,101053.15
2019-03-19T09:50:47.596Z,101051.59
2019-03-19T09:53:18.968Z,101051.52
2019-03-19T09:55:50.291Z,101050.59
2019-03-19T09:58:21.581Z,101057.15
2019-03-19T10:00:53.150Z,101045.06
2019-03-19T10:03:24.382Z,101041.19
2019-03-19T10:05:55.588Z,101047.30
2019-03-19T10:08:27.084Z,101038.06
2019-03-19T10:10:58.320Z,101037.19
2019-03-19T10:13:29.730Z,101037.37
2019-03-19T10:16:00.992Z,101029.35
2019-03-19T10:18:32.336Z,101038.07
2019-03-19T10:21:03.648Z,101043.91
2019-03-19T10:23:35.095Z,101034.91
2019-03-19T10:26:06.345Z,101034.27
2019-03-19T10:28:39.145Z,101027.23
2019-03-19T10:31:09.680Z,101007.16
2019-03-19T10:33:40.817Z,101016.54
2019-03-19T10:36:12.451Z,101014.11
2019-03-19T10:38:43.748Z,101009.13
2019-03-19T10:41:14.973Z,101011.67
2019-03-19T10:43:46.287Z,101014.95
2019-03-19T10:46:17.639Z,101002.98
2019-03-19T10:48:48.925Z,100989.25
2019-03-19T10:51:20.149Z,101001.69
2019-03-19T10:53:51.522Z,101004.91
2019-03-19T10:56:22.811Z,101004.74
2019-03-19T10:58:55.265Z,100996.02
2019-03-19T11:01:26.632Z,101008.67
2019-03-19T11:03:58.117Z,100991.89
2019-03-19T11:06:29.264Z,101004.86
2019-03-19T11:09:00.507Z,101001.16
2019-03-19T11:11:32.582Z,100987.44
2019-03-19T11:14:03.810Z,100983.50
2019-03-19T11:16:35.050Z,100988.21
2019-03-19T11:19:06.433Z,100974.35
2019-03-19T11:21:37.669Z,100975.22
2019-03-19T11:24:09.163Z,100984.86
2019-03-19T11:26:41.822Z,100971.30
2019-03-19T11:29:13.103Z,100968.34
2019-03-19T11:31:44.276Z,100964.58
2019-03-19T11:34:15.387Z,100971.95
2019-03-19T11:36:57.246Z,100964.50
2019-03-19T11:39:20.110Z,100972.48
2019-03-19T11:41:51.460Z,100972.16
2019-03-19T11:44:22.826Z,100965.39
2019-03-19T11:46:54.068Z,100962.06
2019-03-19T11:49:25.298Z,100959.98
2019-03-19T11:51:56.623Z,100951.89
2019-03-19T11:54:28.074Z,100952.97
2019-03-19T11:56:59.430Z,100950.53
2019-03-19T11:59:30.631Z,100952.48
2019-03-19T12:02:02.060Z,100958.09
2019-03-19T12:04:33.445Z,100948.53
2019-03-19T12:07:05.353Z,100942.80
2019-03-19T12:09:36.622Z,100944.40
2019-03-19T12:12:07.944Z,100957.86
2019-03-19T12:14:39.524Z,100953.25
2019-03-19T12:17:10.743Z,100949.13
2019-03-19T12:19:42.064Z,100946.48
2019-03-19T12:22:13.351Z,100953.67
2019-03-19T12:24:44.853Z,100947.64
2019-03-19T12:27:19.475Z,100936.50
2019-03-19T12:29:50.746Z,100942.98
2019-03-19T12:32:21.992Z,100939.80
2019-03-19T12:34:53.382Z,100937.28
2019-03-19T12:37:25.017Z,100937.98
2019-03-19T12:39:56.217Z,100937.23
2019-03-19T12:42:27.458Z,100946.66
2019-03-19T12:44:58.718Z,100943.26
2019-03-19T12:47:29.893Z,100935.30
2019-03-19T12:50:00.984Z,100939.25
2019-03-19T12:52:32.137Z,100938.04
2019-03-19T12:55:03.308Z,100941.05
2019-03-19T12:57:34.418Z,100940.78
2019-03-19T13:00:11.430Z,100941.19
2019-03-19T13:02:42.667Z,100932.63
2019-03-19T13:05:14.092Z,100931.82
2019-03-19T13:07:45.433Z,100934.05
2019-03-19T13:10:20.886Z,100927.58
2019-03-19T13:12:52.247Z,100931.82
2019-03-19T13:15:23.946Z,100933.25
2019-03-19T13:17:55.273Z,100939.06
2019-03-19T13:20:26.543Z,100931.14
2019-03-19T13:22:57.834Z,100929.88
2019-03-19T13:25:29.248Z,100930.41
2019-03-19T13:28:00.430Z,100931.96
2019-03-19T13:30:44.172Z,100929.02
2019-03-19T13:33:06.543Z,100929.52
2019-03-19T13:35:37.876Z,100925.59
2019-03-19T13:38:09.053Z,100932.91
2019-03-19T13:40:40.402Z,100925.31
2019-03-19T13:43:11.687Z,100925.84
2019-03-19T13:45:43.022Z,100923.32
2019-03-19T13:48:14.381Z,100919.75
2019-03-19T13:50:45.599Z,100927.20
2019-03-19T13:53:16.941Z,100916.90
2019-03-19T13:55:48.044Z,100918.39
2019-03-19T13:58:19.433Z,100923.48
2019-03-19T14:00:55.602Z,100914.36
2019-03-19T14:03:23.841Z,100918.27
2019-03-19T14:05:55.349Z,100917.02
2019-03-19T14:08:27.570Z,100919.05
2019-03-19T14:10:58.768Z,100921.09
2019-03-19T14:13:29.927Z,100921.06
2019-03-19T14:16:01.099Z,100925.23
2019-03-19T14:18:32.357Z,100918.77
2019-03-19T14:21:03.663Z,100919.42
2019-03-19T14:23:35.162Z,100925.78
2019-03-19T14:26:06.521Z,100925.78
2019-03-19T14:28:40.524Z,100924.43
2019-03-19T14:31:12.924Z,100928.13
2019-03-19T14:33:44.325Z,100926.69
2019-03-19T14:36:15.700Z,100928.99
2019-03-19T14:38:49.224Z,100930.39
2019-03-19T14:41:20.378Z,100927.10
2019-03-19T14:43:51.612Z,100933.09
2019-03-19T14:46:22.893Z,100932.81
2019-03-19T14:48:54.216Z,100935.59
2019-03-19T14:51:25.483Z,100935.72
2019-03-19T14:53:58.023Z,100932.60
2019-03-19T14:56:29.378Z,100934.90
2019-03-19T14:59:00.780Z,100939.78
2019-03-19T15:01:32.126Z,100943.55
2019-03-19T15:04:03.509Z,100944.98
2019-03-19T15:06:35.185Z,100942.80
2019-03-19T15:09:07.253Z,100941.56
2019-03-19T15:11:38.655Z,100947.27
2019-03-19T15:14:10.188Z,100948.54
2019-03-19T15:16:41.555Z,100954.50
2019-03-19T15:19:12.996Z,100954.01
2019-03-19T15:21:44.748Z,100954.66
2019-03-19T15:24:16.025Z,100959.39
2019-03-19T15:26:47.292Z,100959.39
2019-03-19T15:29:18.487Z,100961.42
2019-03-19T15:31:49.877Z,100958.08
2019-03-19T15:34:21.199Z,100963.23
2019-03-19T15:36:52.592Z,100965.33
2019-03-19T15:39:24.004Z,100969.61
2019-03-19T15:41:55.340Z,100971.09
2019-03-19T15:44:27.140Z,100979.83
2019-03-19T15:46:58.364Z,100975.61
2019-03-19T15:49:37.781Z,100977.20
2019-03-19T15:52:03.796Z,100974.78
2019-03-19T15:54:35.664Z,100983.86
2019-03-19T15:57:08.448Z,100986.32
2019-03-19T15:59:40.213Z,100982.99
2019-03-19T16:02:11.762Z,100984.06
2019-03-19T16:04:43.335Z,100984.38
2019-03-19T16:07:14.630Z,100986.66
2019-03-19T16:09:46.288Z,100989.75
2019-03-19T16:12:18.858Z,100991.83
2019-03-19T16:14:50.367Z,100992.48
2019-03-19T16:17:21.771Z,100997.53
2019-03-19T16:19:53.198Z,100998.50
2019-03-19T16:22:24.772Z,101002.25
2019-03-19T16:24:56.190Z,101001.38
2019-03-19T16:27:30.403Z,101002.45
2019-03-19T16:30:01.772Z,101008.47
2019-03-19T16:32:33.225Z,101001.95
2019-03-19T16:35:06.297Z,101003.27
2019-03-19T16:37:37.674Z,101007.52
2019-03-19T16:40:17.209Z,101010.25
2019-03-19T16:42:49.869Z,101002.33
2019-03-19T16:45:21.208Z,101011.50
2019-03-19T16:47:52.637Z,101016.65
2019-03-19T16:50:24.506Z,101017.16
2019-03-19T16:52:55.841Z,101017.70
2019-03-19T16:55:27.223Z,101013.72
2019-03-19T16:57:58.529Z,101018.38
2019-03-19T17:00:31.041Z,101014.39
2019-03-19T17:03:02.497Z,101012.89
2019-03-19T17:05:34.327Z,101013.40
2019-03-19T17:08:05.575Z,101015.97
2019-03-19T17:10:36.877Z,101021.50
2019-03-19T17:13:08.308Z,101018.12
2019-03-19T17:15:39.614Z,101017.73
2019-03-19T17:18:10.956Z,101020.05
2019-03-19T17:20:42.258Z,101022.00
2019-03-19T17:23:13.582Z,101015.02
2019-03-19T17:25:44.933Z,101023.78
2019-03-19T17:28:22.478Z,101027.39
2019-03-19T17:30:49.304Z,101025.12
2019-03-19T17:33:20.648Z,101029.87
2019-03-19T17:35:52.153Z,101032.36
2019-03-19T17:38:23.417Z,101031.84
2019-03-19T17:40:55.806Z,101033.77
2019-03-19T17:43:27.303Z,101035.48
2019-03-19T17:45:58.647Z,101036.47
2019-03-19T17:48:30.412Z,101042.45
2019-03-19T17:51:02.065Z,101043.33
2019-03-19T17:53:34.685Z,101045.69
2019-03-19T17:56:06.508Z,101043.08
2019-03-19T17:58:38.162Z,101038.61
2019-03-19T18:01:17.282Z,101043.19
2019-03-19T18:03:43.106Z,101040.41
2019-03-19T18:06:14.968Z,101042.69
2019-03-19T18:08:46.936Z,101043.76
2019-03-19T18:11:18.589Z,101043.28
2019-03-19T18:13:50.390Z,101046.13
2019-03-19T18:16:21.945Z,101045.20
2019-03-19T18:18:53.660Z,101048.39
2019-03-19T18:21:25.435Z,101046.80
2019-03-19T18:23:57.382Z,101049.58
2019-03-19T18:26:29.136Z,101038.38
2019-03-19T18:29:00.900Z,101037.80
2019-03-19T18:31:33.575Z,101050.84
2019-03-19T18:34:10.199Z,101047.24
2019-03-19T18:36:38.393Z,101048.73
2019-03-19T18:39:09.981Z,101050.16
2019-03-19T18:41:41.866Z,101052.86
2019-03-19T18:44:13.700Z,101055.22
2019-03-19T18:46:45.968Z,101053.53
2019-03-19T18:49:17.725Z,101050.04
2019-03-19T18:51:49.380Z,101055.94
2019-03-19T18:54:21.244Z,101056.02
2019-03-19T18:56:52.852Z,101052.90
2019-03-19T18:59:24.449Z,101055.83
2019-03-19T19:01:56.430Z,101059.52
2019-03-19T19:04:28.174Z,101061.80
2019-03-19T19:07:00.551Z,101058.00
2019-03-19T19:09:32.310Z,101063.02
2019-03-19T19:12:03.938Z,101066.23
2019-03-19T19:14:35.550Z,101056.86
2019-03-19T19:17:07.065Z,101061.00
2019-03-19T19:19:38.716Z,101064.61
2019-03-19T19:22:10.593Z,101062.00
2019-03-19T19:24:42.303Z,101061.58
2019-03-19T19:27:13.890Z,101068.95
2019-03-19T19:29:45.756Z,101071.65
2019-03-19T19:32:17.404Z,101068.29
2019-03-19T19:34:48.654Z,101073.47
2019-03-19T19:37:19.964Z,101067.34
2019-03-19T19:39:51.323Z,101069.67
2019-03-19T19:42:23.671Z,101074.91
2019-03-19T19:44:54.931Z,101075.97
2019-03-19T19:47:26.175Z,101082.27
2019-03-19T19:49:57.434Z,101076.95
2019-03-19T19:52:28.792Z,101078.70
2019-03-19T19:55:00.016Z,101081.95
2019-03-19T19:57:31.358Z,101085.57
2019-03-19T20:00:02.642Z,101088.39
2019-03-19T20:02:35.201Z,101090.69
2019-03-19T20:05:07.394Z,101086.65
2019-03-19T20:07:38.968Z,101081.17
2019-03-19T20:10:21.466Z,101077.72
2019-03-19T20:12:52.959Z,101079.73
2019-03-19T20:15:24.183Z,101075.75
2019-03-19T20:17:55.501Z,101081.72
2019-03-19T20:20:32.074Z,101075.06
2019-03-19T20:23:03.835Z,101077.19
2019-03-19T20:25:35.386Z,101079.66
2019-03-19T20:28:07.150Z,101078.74
2019-03-19T20:30:38.802Z,101084.83
2019-03-19T20:33:10.664Z,101087.16
2019-03-19T20:35:42.316Z,101087.42
2019-03-19T20:38:14.030Z,101092.44
2019-03-19T20:40:46.657Z,101096.11
2019-03-19T20:43:19.319Z,101101.02
2019-03-19T20:45:50.587Z,101100.38
2019-03-19T20:48:21.903Z,101099.45
2019-03-19T20:50:53.441Z,101100.72
2019-03-19T20:53:24.810Z,101097.28
2019-03-19T20:55:56.094Z,101094.17
2019-03-19T20:58:27.474Z,101102.30
2019-03-19T21:00:58.769Z,101100.59
2019-03-19T21:03:35.838Z,101095.52
2019-03-19T21:06:03.363Z,101095.09
2019-03-19T21:08:34.656Z,101098.56
2019-03-19T21:11:06.014Z,101098.69
2019-03-19T21:13:37.379Z,101099.24
2019-03-19T21:16:08.740Z,101101.63
2019-03-19T21:18:40.045Z,101102.77
2019-03-19T21:21:11.713Z,101104.86
2019-03-19T21:23:42.981Z,101103.95
2019-03-19T21:26:14.296Z,101106.68
2019-03-19T21:28:45.633Z,101107.72
2019-03-19T21:31:18.948Z,101105.34
2019-03-19T21:33:51.579Z,101102.34
2019-03-19T21:36:22.975Z,101106.43
2019-03-19T21:38:54.559Z,101098.03
2019-03-19T21:41:26.181Z,101099.48
2019-03-19T21:43:57.966Z,101100.95
2019-03-19T21:46:29.695Z,101110.02
2019-03-19T21:49:01.764Z,101113.82
2019-03-19T21:51:34.074Z,101116.94
2019-03-19T21:54:05.791Z,101115.70
2019-03-19T21:56:37.553Z,101121.67
2019-03-19T21:59:09.251Z,101120.70
2019-03-19T22:01:40.546Z,101122.09
2019-03-19T22:04:12.634Z,101117.59
2019-03-19T22:06:44.385Z,101126.61
2019-03-19T22:09:16.237Z,101124.19
2019-03-19T22:11:47.629Z,101120.16
2019-03-19T22:14:18.932Z,101115.86
2019-03-19T22:16:50.289Z,101117.26
2019-03-19T22:19:21.947Z,101120.98
2019-03-19T22:21:53.602Z,101123.77
2019-03-19T22:24:25.254Z,101126.06
2019-03-19T22:26:56.906Z,101129.91
2019-03-19T22:29:28.771Z,101132.44
2019-03-19T22:32:00.547Z,101130.84
2019-03-19T22:34:32.079Z,101132.47
2019-03-19T22:37:03.738Z,101139.36
2019-03-19T22:39:37.740Z,101140.64
2019-03-19T22:42:09.439Z,101139.63
2019-03-19T22:44:41.069Z,101134.61
2019-03-19T22:47:12.770Z,101135.81
2019-03-19T22:49:44.576Z,101145.16
2019-03-19T22:52:16.333Z,101143.52
2019-03-19T22:54:48.091Z,101137.69
2019-03-19T22:57:20.569Z,101133.53
2019-03-19T22:59:52.946Z,101136.57
2019-03-19T23:02:24.696Z,101138.31
2019-03-19T23:04:56.366Z,101138.70
2019-03-19T23:07:28.417Z,101144.22
2019-03-19T23:09:59.972Z,101137.95
2019-03-19T23:12:31.727Z,101136.64
2019-03-19T23:15:03.792Z,101137.52
2019-03-19T23:17:35.345Z,101139.83
2019-03-19T23:20:10.173Z,101140.16
2019-03-19T23:22:41.933Z,101136.61
2019-03-19T23:25:13.692Z,101134.00
2019-03-19T23:27:45.413Z,101142.52
2019-03-19T23:30:18.745Z,101138.89
2019-03-19T23:32:50.504Z,101135.66
2019-03-19T23:35:22.263Z,101133.92
2019-03-19T23:37:53.918Z,101133.53
2019-03-19T23:40:25.566Z,101125.95
2019-03-19T23:42:57.329Z,101135.45
2019-03-19T23:45:28.984Z,101131.45
2019-03-19T23:48:00.741Z,101132.33
2019-03-19T23:50:32.502Z,101131.63
2019-03-19T23:53:04.269Z,101130.52
2019-03-19T23:55:35.711Z,101127.86
2019-03-19T23:58:07.059Z,101133.19
